createdAt,value
2023-09-01T00:01:06.261Z,60.38
2023-09-01T00:04:08.128Z,60.55
2023-09-01T00:07:10.094Z,59.04
2023-09-01T00:10:11.951Z,58.26
2023-09-01T00:13:14.060Z,58.29
2023-09-01T00:16:15.974Z,58.46
2023-09-01T00:19:17.686Z,58.85
2023-09-01T00:22:19.512Z,58.19
2023-09-01T00:25:21.246Z,59.34
2023-09-01T00:28:24.052Z,59.20
2023-09-01T00:31:25.751Z,59.70
2023-09-01T00:34:27.781Z,59.56
2023-09-01T00:37:29.807Z,61.95
2023-09-01T00:40:31.533Z,63.66
2023-09-01T00:43:33.517Z,62.55
2023-09-01T00:46:39.641Z,62.10
2023-09-01T00:49:46.738Z,62.89
2023-09-01T00:52:48.761Z,63.44
2023-09-01T00:55:52.488Z,64.04
2023-09-01T00:58:54.178Z,64.21
2023-09-01T01:01:56.142Z,64.53
2023-09-01T01:04:58.585Z,64.45
2023-09-01T01:08:16.603Z,65.59
2023-09-01T01:11:30.621Z,68.93
2023-09-01T01:14:41.251Z,70.89
2023-09-01T01:17:46.063Z,70.97
2023-09-01T01:20:50.775Z,71.13
2023-09-01T01:23:53.027Z,72.14
2023-09-01T01:26:54.648Z,71.93
2023-09-01T01:29:56.659Z,71.89
2023-09-01T01:32:58.490Z,70.34
2023-09-01T01:36:18.518Z,69.60
2023-09-01T01:39:26.403Z,71.65
2023-09-01T01:42:30.667Z,70.92
2023-09-01T01:45:33.004Z,70.86
2023-09-01T01:48:37.600Z,71.11
2023-09-01T01:51:39.311Z,71.42
2023-09-01T01:54:41.112Z,71.41
2023-09-01T01:57:43.138Z,71.52
2023-09-01T02:00:44.831Z,71.80
2023-09-01T02:03:46.560Z,71.69
2023-09-01T02:06:48.500Z,71.86
2023-09-01T02:09:50.263Z,72.79
2023-09-01T02:12:51.982Z,73.37
2023-09-01T02:15:54.579Z,74.54
2023-09-01T02:18:56.364Z,75.37
2023-09-01T02:21:58.094Z,75.03
2023-09-01T02:24:59.758Z,75.23
2023-09-01T02:28:01.432Z,75.33
2023-09-01T02:31:09.016Z,75.79
2023-09-01T02:34:11.372Z,76.09
2023-09-01T02:37:13.035Z,76.22
2023-09-01T02:40:14.775Z,76.63
2023-09-01T02:43:16.400Z,76.98
2023-09-01T02:46:18.474Z,77.22
2023-09-01T02:49:20.157Z,77.31
2023-09-01T02:52:21.858Z,76.65
2023-09-01T02:55:24.330Z,77.67
2023-09-01T02:58:26.745Z,77.30
2023-09-01T03:01:28.421Z,77.71
2023-09-01T03:04:30.030Z,77.48
2023-09-01T03:07:31.686Z,78.26
2023-09-01T03:10:33.466Z,78.48
2023-09-01T03:13:35.476Z,78.08
2023-09-01T03:16:38.230Z,77.55
2023-09-01T03:19:39.888Z,77.21
2023-09-01T03:22:41.902Z,77.76
2023-09-01T03:25:43.651Z,77.86
2023-09-01T03:28:45.406Z,78.48
2023-09-01T03:31:47.127Z,78.50
2023-09-01T03:34:49.155Z,77.56
2023-09-01T03:37:50.917Z,76.10
2023-09-01T03:40:52.752Z,75.41
2023-09-01T03:43:55.304Z,75.52
2023-09-01T03:46:57.513Z,75.76
2023-09-01T03:49:59.199Z,75.95
2023-09-01T03:53:00.860Z,76.47
2023-09-01T03:56:13.389Z,76.21
2023-09-01T03:59:15.144Z,75.59
2023-09-01T04:02:16.874Z,75.32
2023-09-01T04:05:18.654Z,74.40
2023-09-01T04:08:20.362Z,74.25
2023-09-01T04:11:22.107Z,74.01
2023-09-01T04:14:23.754Z,74.55
2023-09-01T04:17:25.475Z,74.80
2023-09-01T04:20:27.134Z,75.15
2023-09-01T04:23:29.111Z,74.56
2023-09-01T04:26:42.609Z,74.37
2023-09-01T04:29:59.254Z,74.21
2023-09-01T04:33:09.461Z,74.41
2023-09-01T04:36:11.222Z,74.77
2023-09-01T04:39:12.883Z,74.59
2023-09-01T04:42:14.744Z,74.59
2023-09-01T04:45:17.023Z,74.79
2023-09-01T04:48:18.751Z,75.07
2023-09-01T04:51:20.432Z,74.52
2023-09-01T04:54:22.167Z,73.66
2023-09-01T04:57:27.740Z,73.10
2023-09-01T05:00:29.355Z,72.56
2023-09-01T05:03:31.051Z,72.82
2023-09-01T05:06:32.785Z,72.04
2023-09-01T05:09:34.524Z,71.64
2023-09-01T05:12:36.486Z,71.09
2023-09-01T05:15:38.434Z,69.82
2023-09-01T05:18:40.107Z,69.51
2023-09-01T05:21:41.894Z,71.79
2023-09-01T05:24:43.722Z,72.08
2023-09-01T05:27:45.725Z,73.28
2023-09-01T05:30:47.494Z,72.90
2023-09-01T05:33:49.210Z,73.39
2023-09-01T05:36:51.022Z,75.06
2023-09-01T05:39:52.751Z,75.67
2023-09-01T05:42:54.550Z,77.16
2023-09-01T05:46:05.569Z,77.45
2023-09-01T05:49:07.327Z,75.52
2023-09-01T05:52:09.157Z,76.05
2023-09-01T05:55:10.998Z,75.75
2023-09-01T05:58:14.155Z,74.39
2023-09-01T06:01:22.651Z,73.76
2023-09-01T06:04:24.847Z,71.65
2023-09-01T06:07:26.768Z,71.91
2023-09-01T06:10:29.570Z,72.44
2023-09-01T06:13:31.840Z,73.91
2023-09-01T06:16:33.573Z,73.35
2023-09-01T06:19:35.366Z,73.48
2023-09-01T06:22:47.848Z,73.52
2023-09-01T06:25:54.261Z,74.22
2023-09-01T06:28:56.601Z,74.89
2023-09-01T06:31:58.393Z,74.67
2023-09-01T06:35:00.752Z,74.93
2023-09-01T06:38:06.813Z,75.02
2023-09-01T06:41:08.978Z,74.51
2023-09-01T06:44:11.048Z,73.55
2023-09-01T06:47:13.087Z,72.07
2023-09-01T06:50:14.819Z,70.65
2023-09-01T06:53:17.132Z,68.88
2023-09-01T06:56:22.002Z,68.96
2023-09-01T06:59:25.331Z,67.02
2023-09-01T07:02:27.416Z,65.51
2023-09-01T07:05:29.163Z,65.98
2023-09-01T07:08:31.729Z,65.28
2023-09-01T07:11:33.462Z,65.47
2023-09-01T07:14:35.688Z,63.14
2023-09-01T07:17:37.543Z,62.94
2023-09-01T07:20:39.783Z,62.02
2023-09-01T07:23:41.569Z,61.66
2023-09-01T07:26:43.338Z,61.28
2023-09-01T07:29:45.385Z,60.24
2023-09-01T07:32:47.112Z,61.35
2023-09-01T07:35:52.325Z,60.63
2023-09-01T07:38:54.116Z,60.97
2023-09-01T07:41:57.133Z,60.76
2023-09-01T07:45:01.713Z,60.10
2023-09-01T07:48:18.967Z,60.39
2023-09-01T07:51:23.085Z,61.06
2023-09-01T07:54:24.825Z,60.02
2023-09-01T07:57:26.812Z,59.39
2023-09-01T08:00:28.451Z,58.88
2023-09-01T08:03:30.256Z,59.12
2023-09-01T08:06:32.563Z,57.56
2023-09-01T08:09:34.591Z,56.66
2023-09-01T08:12:39.208Z,56.08
2023-09-01T08:15:41.878Z,55.07
2023-09-01T08:18:44.020Z,55.73
2023-09-01T08:21:45.678Z,55.51
2023-09-01T08:24:47.680Z,54.48
2023-09-01T08:27:49.634Z,53.93
2023-09-01T08:30:51.699Z,53.93
2023-09-01T08:33:54.072Z,53.63
2023-09-01T08:36:58.699Z,54.25
2023-09-01T08:40:00.907Z,55.12
2023-09-01T08:43:03.736Z,56.40
2023-09-01T08:49:11.394Z,58.13
2023-09-01T08:52:13.554Z,57.53
2023-09-01T08:55:17.163Z,57.42
2023-09-01T08:58:24.565Z,58.13
2023-09-01T09:01:26.302Z,58.41
2023-09-01T09:04:28.597Z,58.98
2023-09-01T09:07:30.626Z,59.56
2023-09-01T09:10:39.016Z,59.90
2023-09-01T09:13:41.567Z,59.31
2023-09-01T09:16:54.241Z,59.12
2023-09-01T09:19:57.144Z,58.66
2023-09-01T09:22:59.524Z,58.21
2023-09-01T09:26:06.232Z,57.04
2023-09-01T09:29:09.959Z,55.70
2023-09-01T09:32:23.072Z,55.20
2023-09-01T09:35:25.144Z,54.57
2023-09-01T09:38:42.371Z,53.72
2023-09-01T09:41:46.539Z,52.87
2023-09-01T09:44:48.515Z,52.11
2023-09-01T09:47:53.820Z,51.21
2023-09-01T09:50:59.715Z,50.49
2023-09-01T09:54:08.874Z,50.69
2023-09-01T09:57:21.512Z,50.63
2023-09-01T10:00:29.188Z,50.40
2023-09-01T10:03:32.885Z,49.43
2023-09-01T10:06:37.461Z,49.15
2023-09-01T10:09:39.542Z,49.57
2023-09-01T10:12:42.052Z,50.41
2023-09-01T10:15:49.847Z,48.83
2023-09-01T10:18:51.763Z,48.31
2023-09-01T10:21:53.607Z,48.29
2023-09-01T10:25:25.309Z,47.64
2023-09-01T10:28:30.287Z,47.83
2023-09-01T10:31:33.890Z,48.44
2023-09-01T10:34:38.080Z,47.51
2023-09-01T10:37:39.752Z,45.99
2023-09-01T10:40:45.583Z,45.95
2023-09-01T10:43:55.520Z,47.11
2023-09-01T10:47:17.156Z,44.23
2023-09-01T10:50:19.420Z,44.34
2023-09-01T10:53:32.085Z,46.17
2023-09-01T10:56:52.043Z,42.83
2023-09-01T10:59:53.736Z,44.94
2023-09-01T11:03:25.252Z,45.05
2023-09-01T11:06:26.898Z,38.68
2023-09-01T11:09:50.082Z,37.25
2023-09-01T11:12:51.811Z,40.75
2023-09-01T11:15:54.173Z,42.08
2023-09-01T11:19:01.902Z,41.97
2023-09-01T11:22:04.107Z,38.93
2023-09-01T11:25:09.715Z,37.06
2023-09-01T11:28:13.119Z,37.29
2023-09-01T11:31:15.753Z,38.69
2023-09-01T11:34:17.650Z,40.34
2023-09-01T11:37:35.347Z,39.43
2023-09-01T11:40:37.638Z,39.48
2023-09-01T11:43:40.763Z,40.24
2023-09-01T11:46:42.751Z,40.00
2023-09-01T11:49:45.067Z,39.53
2023-09-01T11:52:51.372Z,39.60
2023-09-01T11:55:54.025Z,36.92
2023-09-01T11:58:57.451Z,32.75
2023-09-01T12:02:00.326Z,33.14
2023-09-01T12:05:02.354Z,34.21
2023-09-01T12:08:05.392Z,35.89
2023-09-01T12:11:07.386Z,36.44
2023-09-01T12:14:23.507Z,33.82
2023-09-01T12:17:25.531Z,32.47
2023-09-01T12:20:27.669Z,32.55
2023-09-01T12:23:32.459Z,34.10
2023-09-01T12:26:34.203Z,35.00
2023-09-01T12:29:36.023Z,35.25
2023-09-01T12:32:38.284Z,35.05
2023-09-01T12:35:41.933Z,35.13
2023-09-01T12:38:43.646Z,36.17
2023-09-01T12:41:45.357Z,36.38
2023-09-01T12:44:47.342Z,37.23
2023-09-01T12:47:49.066Z,36.89
2023-09-01T12:51:09.475Z,37.26
2023-09-01T12:54:18.962Z,36.96
2023-09-01T12:57:21.814Z,36.31
2023-09-01T13:00:24.148Z,37.29
2023-09-01T13:03:26.003Z,37.56
2023-09-01T13:06:28.350Z,37.20
2023-09-01T13:09:30.044Z,36.62
2023-09-01T13:12:32.188Z,36.04
2023-09-01T13:15:34.015Z,36.63
2023-09-01T13:18:36.311Z,36.45
2023-09-01T13:21:37.974Z,35.59
2023-09-01T13:24:39.709Z,36.03
2023-09-01T13:27:41.469Z,36.50
2023-09-01T13:30:43.449Z,36.73
2023-09-01T13:33:45.143Z,37.05
2023-09-01T13:36:47.914Z,36.88
2023-09-01T13:39:49.950Z,37.59
2023-09-01T13:42:51.659Z,37.95
2023-09-01T13:45:54.949Z,37.88
2023-09-01T13:48:59.568Z,37.55
2023-09-01T13:52:01.340Z,37.01
2023-09-01T13:55:03.576Z,37.50
2023-09-01T13:58:05.236Z,37.33
2023-09-01T14:01:07.022Z,37.11
2023-09-01T14:04:08.817Z,36.83
2023-09-01T14:07:10.633Z,36.79
2023-09-01T14:10:12.467Z,37.32
2023-09-01T14:13:14.363Z,37.39
2023-09-01T14:16:16.367Z,36.88
2023-09-01T14:19:18.794Z,36.65
2023-09-01T14:22:20.858Z,36.32
2023-09-01T14:25:22.718Z,36.05
2023-09-01T14:28:24.712Z,36.15
2023-09-01T14:31:26.872Z,35.16
2023-09-01T14:34:28.743Z,35.45
2023-09-01T14:37:30.522Z,35.20
2023-09-01T14:40:33.128Z,35.10
2023-09-01T14:43:34.789Z,34.98
2023-09-01T14:46:36.565Z,34.95
2023-09-01T14:49:38.530Z,34.24
2023-09-01T14:52:40.285Z,34.13
2023-09-01T14:55:42.104Z,34.84
2023-09-01T14:58:43.777Z,33.72
2023-09-01T15:01:45.493Z,34.00
2023-09-01T15:04:47.583Z,34.00
2023-09-01T15:07:49.446Z,34.37
2023-09-01T15:10:53.250Z,34.44
2023-09-01T15:13:57.402Z,35.06
2023-09-01T15:16:59.074Z,35.74
2023-09-01T15:20:00.710Z,35.92
2023-09-01T15:23:02.397Z,36.29
2023-09-01T15:26:04.955Z,36.50
2023-09-01T15:29:06.726Z,37.04
2023-09-01T15:32:08.843Z,37.57
2023-09-01T15:35:22.118Z,38.03
2023-09-01T15:38:27.073Z,38.29
2023-09-01T15:41:28.739Z,38.79
2023-09-01T15:44:31.234Z,38.77
2023-09-01T15:47:32.905Z,38.86
2023-09-01T15:50:44.868Z,38.78
2023-09-01T15:53:47.702Z,39.15
2023-09-01T15:56:49.600Z,39.48
2023-09-01T15:59:52.486Z,39.54
2023-09-01T16:02:54.203Z,39.79
2023-09-01T16:05:58.726Z,39.88
2023-09-01T16:09:00.367Z,40.07
2023-09-01T16:12:04.350Z,40.50
2023-09-01T16:15:07.118Z,40.57
2023-09-01T16:18:09.314Z,40.87
2023-09-01T16:21:11.356Z,41.03
2023-09-01T16:24:12.961Z,41.36
2023-09-01T16:27:15.091Z,41.63
2023-09-01T16:30:17.007Z,41.72
2023-09-01T16:33:19.237Z,41.95
2023-09-01T16:36:20.963Z,41.71
2023-09-01T16:39:22.700Z,42.09
2023-09-01T16:42:24.417Z,42.68
2023-09-01T16:45:26.150Z,43.10
2023-09-01T16:48:27.845Z,43.42
2023-09-01T16:51:29.604Z,43.60
2023-09-01T16:54:31.359Z,43.69
2023-09-01T16:57:33.212Z,44.25
2023-09-01T17:00:35.053Z,44.57
2023-09-01T17:03:36.834Z,44.88
2023-09-01T17:06:41.774Z,45.54
2023-09-01T17:09:43.977Z,45.95
2023-09-01T17:12:48.570Z,46.62
2023-09-01T17:15:50.551Z,47.13
2023-09-01T17:18:52.211Z,47.48
2023-09-01T17:21:53.993Z,47.91
2023-09-01T17:24:56.004Z,48.35
2023-09-01T17:27:58.001Z,48.78
2023-09-01T17:30:59.788Z,49.17
2023-09-01T17:34:01.560Z,50.07
2023-09-01T17:37:03.346Z,50.42
2023-09-01T17:40:06.380Z,50.91
2023-09-01T17:43:10.221Z,51.05
2023-09-01T17:46:11.961Z,51.95
2023-09-01T17:49:14.296Z,52.09
2023-09-01T17:52:16.603Z,52.54
2023-09-01T17:55:20.954Z,52.78
2023-09-01T17:58:22.735Z,53.26
2023-09-01T18:01:25.316Z,53.75
2023-09-01T18:04:27.090Z,54.05
2023-09-01T18:07:28.991Z,54.44
2023-09-01T18:10:31.866Z,54.60
2023-09-01T18:13:34.433Z,54.85
2023-09-01T18:16:37.554Z,55.08
2023-09-01T18:19:39.460Z,55.50
2023-09-01T18:22:46.315Z,55.63
2023-09-01T18:25:48.216Z,55.62
2023-09-01T18:28:50.089Z,56.06
2023-09-01T18:31:55.932Z,55.90
2023-09-01T18:34:59.861Z,56.10
2023-09-01T18:38:01.550Z,56.66
2023-09-01T18:41:03.427Z,56.68
2023-09-01T18:44:07.110Z,57.13
2023-09-01T18:47:08.860Z,57.04
2023-09-01T18:50:12.546Z,56.69
2023-09-01T18:53:14.664Z,57.22
2023-09-01T18:56:20.244Z,58.07
2023-09-01T18:59:22.422Z,59.13
2023-09-01T19:02:37.490Z,60.91
2023-09-01T19:05:41.293Z,60.06
2023-09-01T19:08:43.383Z,59.80
2023-09-01T19:11:45.862Z,60.13
2023-09-01T19:14:47.822Z,60.42
2023-09-01T19:17:50.771Z,60.79
2023-09-01T19:20:53.156Z,61.00
2023-09-01T19:23:55.729Z,61.38
2023-09-01T19:26:59.141Z,61.54
2023-09-01T19:30:01.302Z,61.22
2023-09-01T19:33:04.040Z,61.46
2023-09-01T19:36:10.334Z,62.04
2023-09-01T19:39:12.533Z,61.77
2023-09-01T19:42:16.067Z,62.41
2023-09-01T19:45:27.943Z,64.16
2023-09-01T19:48:32.620Z,65.27
2023-09-01T19:51:38.156Z,65.76
2023-09-01T19:54:40.095Z,66.61
2023-09-01T19:57:42.594Z,67.85
2023-09-01T20:00:45.565Z,68.04
2023-09-01T20:03:47.377Z,68.37
2023-09-01T20:06:49.113Z,67.86
2023-09-01T20:09:50.838Z,68.28
2023-09-01T20:12:52.903Z,68.64
2023-09-01T20:15:54.899Z,68.15
2023-09-01T20:18:57.659Z,68.52
2023-09-01T20:21:59.628Z,69.76
2023-09-01T20:25:03.698Z,70.53
2023-09-01T20:28:05.952Z,71.39
2023-09-01T20:31:07.763Z,70.75
2023-09-01T20:34:09.615Z,70.92
2023-09-01T20:37:11.702Z,70.76
2023-09-01T20:40:14.272Z,71.47
2023-09-01T20:43:17.439Z,70.90
2023-09-01T20:46:19.437Z,70.90
2023-09-01T20:49:21.378Z,70.82
2023-09-01T20:52:23.465Z,70.77
2023-09-01T20:55:25.629Z,71.48
2023-09-01T20:58:30.582Z,72.43
2023-09-01T21:01:32.753Z,72.67
2023-09-01T21:04:36.856Z,72.48
2023-09-01T21:07:39.819Z,72.71
2023-09-01T21:10:41.543Z,72.86
2023-09-01T21:13:43.304Z,72.89
2023-09-01T21:16:45.146Z,72.71
2023-09-01T21:19:46.965Z,72.65
2023-09-01T21:22:48.710Z,72.54
2023-09-01T21:25:50.449Z,72.07
2023-09-01T21:28:52.258Z,71.88
2023-09-01T21:31:54.482Z,72.20
2023-09-01T21:34:56.842Z,72.27
2023-09-01T21:37:58.649Z,73.00
2023-09-01T21:41:00.373Z,73.27
2023-09-01T21:44:02.575Z,73.61
2023-09-01T21:47:05.041Z,73.88
2023-09-01T21:50:07.687Z,74.10
2023-09-01T21:53:09.453Z,74.22
2023-09-01T21:56:11.261Z,74.31
2023-09-01T21:59:13.024Z,74.63
2023-09-01T22:02:14.937Z,74.95
2023-09-01T22:05:16.732Z,75.14
2023-09-01T22:08:18.671Z,75.47
2023-09-01T22:11:20.345Z,76.10
2023-09-01T22:14:22.029Z,76.45
2023-09-01T22:17:23.767Z,76.70
2023-09-01T22:20:25.850Z,76.76
2023-09-01T22:23:27.698Z,77.00
2023-09-01T22:26:29.391Z,77.17
2023-09-01T22:29:31.342Z,77.67
2023-09-01T22:32:33.455Z,77.83
2023-09-01T22:35:35.518Z,77.99
2023-09-01T22:38:37.270Z,78.33
2023-09-01T22:41:38.985Z,78.27
2023-09-01T22:44:40.725Z,78.48
2023-09-01T22:47:42.564Z,78.48
2023-09-01T22:50:44.554Z,78.46
2023-09-01T22:53:46.919Z,78.12
2023-09-01T22:56:48.539Z,78.11
2023-09-01T22:59:52.615Z,77.99
2023-09-01T23:02:54.732Z,77.60
2023-09-01T23:05:56.530Z,77.30
2023-09-01T23:08:58.636Z,77.40
2023-09-01T23:12:00.418Z,77.29
2023-09-01T23:15:02.203Z,76.92
2023-09-01T23:18:04.247Z,76.84
2023-09-01T23:21:05.975Z,76.44
2023-09-01T23:24:07.977Z,76.48
2023-09-01T23:27:09.607Z,76.47
2023-09-01T23:30:11.966Z,76.87
2023-09-01T23:33:13.831Z,77.00
2023-09-01T23:36:15.905Z,77.26
2023-09-01T23:39:17.959Z,77.83
2023-09-01T23:42:19.663Z,77.66
2023-09-01T23:45:21.440Z,77.43
2023-09-01T23:48:23.179Z,77.59
2023-09-01T23:51:24.871Z,77.99
2023-09-01T23:54:26.634Z,77.90
2023-09-01T23:57:28.288Z,78.35
